S 386 Casilo — OZZP — position and weather

sailwx.info

Track history (hours):
 
Tides and Currents Weather Stations Pressure Air Temp Water Temp Dewpoint Dewpoint Depression Visibility Wind Speed Wind Dir Waves Ship Positions

S 386 Casilo

Last reported at 2014-Jul-28 22:33 UTC. Time now 2014-Jul-30 11:07 UTC.
Position N 57°49' E 008°53'.

Length 24 m.

Type: Fishing. MMSI: 219948000.

Date/timePositionNaut miles runAvg speedWind from/ knotsBaromVisibWave heightAir tempDewpointWater temp
2014-Jul-28 22:33N 57°49' E 008°53'2 2.0
2014-Jul-28 21:27N 57°48' E 008°49'2 2.0
2014-Jul-28 20:33N 57°47' E 008°46'20 1.8
2014-Jul-28 09:33N 57°55' E 009°21'62 8.7
2014-Jul-28 02:25N 58°18' E 011°09'70 2.4
2014-Jul-26 21:19N 57°53' E 009°06'6 1.5
2014-Jul-26 17:12N 57°50' E 008°56'1 2.0
2014-Jul-26 16:30N 57°49' E 008°53'3 0.1
2014-Jul-25 16:33N 57°47' E 008°49'8 8.5
2014-Jul-25 15:34N 57°51' E 009°03'10 1.1
2014-Jul-25 06:12N 57°47' E 008°46'39 4.1
2014-Jul-24 20:32N 57°44' E 010°00'9 9.5
2014-Jul-24 19:33N 57°45' E 010°17'9 9.2
2014-Jul-24 18:33N 57°46' E 010°35'3 3.0
2014-Jul-24 17:33N 57°43' E 010°36'0 0.2
2014-Jul-24 16:33N 57°43' E 010°36'0 0.0
2014-Jul-24 13:33N 57°43' E 010°36'0 0.0
2014-Jul-24 12:33N 57°43' E 010°36'0 0.0
2014-Jul-24 10:12N 57°43' E 010°36'2 1.4
2014-Jul-24 08:33N 57°44' E 010°40'8 8.4
2014-Jul-24 07:33N 57°51' E 010°49'9 9.2
2014-Jul-24 06:33N 57°59' E 010°56'8 8.6
2014-Jul-24 05:34N 58°07' E 011°03'5 0.9
2014-Jul-23 23:33N 58°12' E 011°04'5 5.5
2014-Jul-23 22:33N 58°08' E 010°58'5 5.2
2014-Jul-23 21:33N 58°04' E 010°51'4 1.8
2014-Jul-23 19:25N 58°01' E 010°46'2 1.9
2014-Jul-23 18:31N 58°02' E 010°43'3 2.0
2014-Jul-23 17:10N 58°04' E 010°40'1 2.0
2014-Jul-23 16:31N 58°05' E 010°38'4 1.9
2014-Jul-23 14:31N 58°07' E 010°33'2 2.1
2014-Jul-23 13:25N 58°08' E 010°29'2 2.1
2014-Jul-23 12:16N 58°09' E 010°24'2 2.1
2014-Jul-23 11:19N 58°09' E 010°21'2 2.1
2014-Jul-23 10:31N 58°09' E 010°18'2 2.3
2014-Jul-23 09:33N 58°09' E 010°13'5 4.9
2014-Jul-23 08:33N 58°08' E 010°22'10 4.3
2014-Jul-23 06:12N 58°04' E 010°40'5 1.9
2014-Jul-23 03:24N 58°07' E 010°32'7 1.8
2014-Jul-22 23:27N 58°10' E 010°19'31 3.4
2014-Jul-22 14:20N 58°21' E 011°14'0 0.0
2014-Jul-22 13:22N 58°21' E 011°14'7 7.6
2014-Jul-22 12:30N 58°15' E 011°08'9 8.8
2014-Jul-22 11:26N 58°09' E 010°55'8 8.5
2014-Jul-22 10:31N 58°04' E 010°44'2 1.1
2014-Jul-22 08:16N 58°05' E 010°41'2 1.8
2014-Jul-22 07:22N 58°06' E 010°38'2 1.8
2014-Jul-22 06:31N 58°07' E 010°36'2 1.8
2014-Jul-22 05:22N 58°09' E 010°33'2 2.0
2014-Jul-22 04:31N 58°10' E 010°31'3 2.0
2014-Jul-22 03:07N 58°11' E 010°26'3 2.0
2014-Jul-22 01:25N 58°11' E 010°19'2 1.9
2014-Jul-22 00:28N 58°10' E 010°16'2 2.4
2014-Jul-21 23:33N 58°09' E 010°12'8 7.9
2014-Jul-21 22:32N 58°08' E 010°27'28 1.7
2014-Jul-21 06:15N 58°21' E 011°14'13 2.2
2014-Jul-21 00:07N 58°12' E 010°55'6 8.0
2014-Jul-20 23:21N 58°09' E 010°45'9 0.5
2014-Jul-20 04:12N 58°11' E 010°29'13 1.9
2014-Jul-19 21:33N 58°08' E 010°05'17 7.6
2014-Jul-19 19:19N 58°06' E 010°37'3 3.6
2014-Jul-19 18:32N 58°05' E 010°42'2 1.6
2014-Jul-19 17:29N 58°07' E 010°41'2 2.0
2014-Jul-19 16:32N 58°08' E 010°38'2 2.0
2014-Jul-19 15:32N 58°09' E 010°35'2 2.0
2014-Jul-19 14:26N 58°10' E 010°32'2 1.9
2014-Jul-19 13:26N 58°12' E 010°29'8 1.9
2014-Jul-19 09:14N 58°11' E 010°14'3 1.9
2014-Jul-19 07:26N 58°09' E 010°08'2 2.4
2014-Jul-19 06:33N 58°08' E 010°04'8 6.3
2014-Jul-19 05:15N 58°05' E 010°18'6 8.3
2014-Jul-19 04:33N 58°04' E 010°29'  
Track history (hours):
 
Tides and Currents Weather Stations Pressure Air Temp Water Temp Dewpoint Dewpoint Depression Visibility Wind Speed Wind Dir Waves Ship Positions

S 386 Casilo

Last reported at 2014-Jul-28 22:33 UTC. Time now 2014-Jul-30 11:07 UTC.
Position N 57°49' E 008°53'.

Length 24 m.

Type: Fishing. MMSI: 219948000.

Date/timePositionNaut miles runAvg speedWind from/ knotsBaromVisibWave heightAir tempDewpointWater temp
2014-Jul-28 22:33N 57°49' E 008°53'2 2.0
2014-Jul-28 21:27N 57°48' E 008°49'2 2.0
2014-Jul-28 20:33N 57°47' E 008°46'20 1.8
2014-Jul-28 09:33N 57°55' E 009°21'62 8.7
2014-Jul-28 02:25N 58°18' E 011°09'70 2.4
2014-Jul-26 21:19N 57°53' E 009°06'6 1.5
2014-Jul-26 17:12N 57°50' E 008°56'1 2.0
2014-Jul-26 16:30N 57°49' E 008°53'3 0.1
2014-Jul-25 16:33N 57°47' E 008°49'8 8.5
2014-Jul-25 15:34N 57°51' E 009°03'10 1.1
2014-Jul-25 06:12N 57°47' E 008°46'39 4.1
2014-Jul-24 20:32N 57°44' E 010°00'9 9.5
2014-Jul-24 19:33N 57°45' E 010°17'9 9.2
2014-Jul-24 18:33N 57°46' E 010°35'3 3.0
2014-Jul-24 17:33N 57°43' E 010°36'0 0.2
2014-Jul-24 16:33N 57°43' E 010°36'0 0.0
2014-Jul-24 13:33N 57°43' E 010°36'0 0.0
2014-Jul-24 12:33N 57°43' E 010°36'0 0.0
2014-Jul-24 10:12N 57°43' E 010°36'2 1.4
2014-Jul-24 08:33N 57°44' E 010°40'8 8.4
2014-Jul-24 07:33N 57°51' E 010°49'9 9.2
2014-Jul-24 06:33N 57°59' E 010°56'8 8.6
2014-Jul-24 05:34N 58°07' E 011°03'5 0.9
2014-Jul-23 23:33N 58°12' E 011°04'5 5.5
2014-Jul-23 22:33N 58°08' E 010°58'5 5.2
2014-Jul-23 21:33N 58°04' E 010°51'4 1.8
2014-Jul-23 19:25N 58°01' E 010°46'2 1.9
2014-Jul-23 18:31N 58°02' E 010°43'3 2.0
2014-Jul-23 17:10N 58°04' E 010°40'1 2.0
2014-Jul-23 16:31N 58°05' E 010°38'4 1.9
2014-Jul-23 14:31N 58°07' E 010°33'2 2.1
2014-Jul-23 13:25N 58°08' E 010°29'2 2.1
2014-Jul-23 12:16N 58°09' E 010°24'2 2.1
2014-Jul-23 11:19N 58°09' E 010°21'2 2.1
2014-Jul-23 10:31N 58°09' E 010°18'2 2.3
2014-Jul-23 09:33N 58°09' E 010°13'5 4.9
2014-Jul-23 08:33N 58°08' E 010°22'10 4.3
2014-Jul-23 06:12N 58°04' E 010°40'5 1.9
2014-Jul-23 03:24N 58°07' E 010°32'7 1.8
2014-Jul-22 23:27N 58°10' E 010°19'31 3.4
2014-Jul-22 14:20N 58°21' E 011°14'0 0.0
2014-Jul-22 13:22N 58°21' E 011°14'7 7.6
2014-Jul-22 12:30N 58°15' E 011°08'9 8.8
2014-Jul-22 11:26N 58°09' E 010°55'8 8.5
2014-Jul-22 10:31N 58°04' E 010°44'2 1.1
2014-Jul-22 08:16N 58°05' E 010°41'2 1.8
2014-Jul-22 07:22N 58°06' E 010°38'2 1.8
2014-Jul-22 06:31N 58°07' E 010°36'2 1.8
2014-Jul-22 05:22N 58°09' E 010°33'2 2.0
2014-Jul-22 04:31N 58°10' E 010°31'3 2.0
2014-Jul-22 03:07N 58°11' E 010°26'3 2.0
2014-Jul-22 01:25N 58°11' E 010°19'2 1.9
2014-Jul-22 00:28N 58°10' E 010°16'2 2.4
2014-Jul-21 23:33N 58°09' E 010°12'8 7.9
2014-Jul-21 22:32N 58°08' E 010°27'28 1.7
2014-Jul-21 06:15N 58°21' E 011°14'13 2.2
2014-Jul-21 00:07N 58°12' E 010°55'6 8.0
2014-Jul-20 23:21N 58°09' E 010°45'9 0.5
2014-Jul-20 04:12N 58°11' E 010°29'13 1.9
2014-Jul-19 21:33N 58°08' E 010°05'17 7.6
2014-Jul-19 19:19N 58°06' E 010°37'3 3.6
2014-Jul-19 18:32N 58°05' E 010°42'2 1.6
2014-Jul-19 17:29N 58°07' E 010°41'2 2.0
2014-Jul-19 16:32N 58°08' E 010°38'2 2.0
2014-Jul-19 15:32N 58°09' E 010°35'2 2.0
2014-Jul-19 14:26N 58°10' E 010°32'2 1.9
2014-Jul-19 13:26N 58°12' E 010°29'8 1.9
2014-Jul-19 09:14N 58°11' E 010°14'3 1.9
2014-Jul-19 07:26N 58°09' E 010°08'2 2.4
2014-Jul-19 06:33N 58°08' E 010°04'8 6.3
2014-Jul-19 05:15N 58°05' E 010°18'6 8.3
2014-Jul-19 04:33N 58°04' E 010°29'  

Dump ship's entire track history